Port O'Connor, Texas
Current Conditions -  °F | °C
As of 7:53 AM on Thursday 23 Oct 2014 (Local Time) from KPSX Reporting Station
Haze Haze  
Wind Chill: 62°   Ceiling: Unl
Heat Index: 62°   Visibility: 5mi
Dew Point: 60°   Wind: 7mph
Humidity: 93%   Direction: 20°NNE
Pressure: 30.08"   Gusts: NA
Location:  28.45°N, 96.41°W
Report Text: KPSX 231253Z AUTO 02006KT 5SM BR CLR 17/16 A3008 RMK AO2 SLP186 T01670156
Loading
Personal Weather Stations






























Interactive Weather Map
Tropical Storm Tracking
New forecast layout! Learn more

10-Day Weather Forecast

Advertisements
Track Severe Weather on mobile